createdAt,value
2023-01-20T00:02:16.632Z,36.97
2023-01-20T00:04:51.460Z,36.10
2023-01-20T00:07:21.313Z,36.70
2023-01-20T00:09:51.193Z,40.55
2023-01-20T00:12:21.129Z,37.08
2023-01-20T00:14:51.006Z,36.95
2023-01-20T00:17:20.904Z,37.47
2023-01-20T00:19:53.333Z,38.53
2023-01-20T00:22:24.250Z,40.33
2023-01-20T00:24:54.099Z,37.25
2023-01-20T00:27:24.032Z,36.42
2023-01-20T00:29:54.113Z,38.33
2023-01-20T00:32:23.970Z,37.63
2023-01-20T00:34:56.404Z,36.72
2023-01-20T00:37:26.233Z,40.28
2023-01-20T00:39:56.093Z,37.67
2023-01-20T00:42:26.061Z,37.58
2023-01-20T00:44:55.891Z,38.30
2023-01-20T00:47:25.839Z,40.65
2023-01-20T00:49:58.286Z,33.95
2023-01-20T00:52:30.364Z,40.05
2023-01-20T00:55:00.197Z,44.22
2023-01-20T00:57:30.072Z,47.38
2023-01-20T00:59:59.906Z,90.97
2023-01-20T01:02:29.870Z,98.07
2023-01-20T01:05:02.308Z,75.97
2023-01-20T01:07:32.146Z,57.08
2023-01-20T01:10:02.007Z,83.90
2023-01-20T01:12:31.911Z,111.78
2023-01-20T01:15:01.746Z,83.68
2023-01-20T01:17:31.702Z,78.80
2023-01-20T01:20:04.329Z,109.55
2023-01-20T01:22:35.485Z,85.30
2023-01-20T01:25:05.443Z,62.35
2023-01-20T01:27:35.579Z,82.60
2023-01-20T01:30:06.282Z,58.63
2023-01-20T01:32:36.224Z,43.75
2023-01-20T01:35:09.841Z,67.35
2023-01-20T01:37:39.694Z,49.83
2023-01-20T01:40:12.253Z,44.25
2023-01-20T01:42:42.989Z,38.88
2023-01-20T01:45:27.688Z,39.60
2023-01-20T01:48:05.009Z,45.78
2023-01-20T01:50:42.837Z,38.97
2023-01-20T01:53:13.667Z,42.10
2023-01-20T01:55:49.012Z,34.58
2023-01-20T01:58:24.140Z,37.63
2023-01-20T02:00:54.275Z,37.50
2023-01-20T02:03:24.749Z,35.67
2023-01-20T02:05:58.753Z,36.45
2023-01-20T02:08:28.967Z,49.35
2023-01-20T02:10:58.848Z,36.70
2023-01-20T02:13:28.799Z,34.75
2023-01-20T02:16:10.052Z,32.65
2023-01-20T02:18:54.446Z,33.42
2023-01-20T02:22:14.084Z,41.78
2023-01-20T02:25:12.376Z,32.58
2023-01-20T02:28:25.580Z,33.60
2023-01-20T02:31:17.039Z,36.60
2023-01-20T02:33:59.391Z,41.58
2023-01-20T02:36:37.085Z,47.10
2023-01-20T02:39:13.884Z,47.03
2023-01-20T02:42:02.065Z,36.40
2023-01-20T02:44:40.071Z,37.53
2023-01-20T02:47:15.380Z,32.55
2023-01-20T02:49:56.343Z,35.55
2023-01-20T02:52:30.109Z,36.10
2023-01-20T02:55:05.334Z,33.50
2023-01-20T02:57:40.648Z,34.72
2023-01-20T03:00:17.765Z,35.38
2023-01-20T03:02:51.369Z,34.53
2023-01-20T03:05:27.530Z,37.13
2023-01-20T03:07:58.805Z,34.60
2023-01-20T03:10:33.483Z,33.70
2023-01-20T03:15:53.556Z,33.30
2023-01-20T03:18:23.828Z,34.78
2023-01-20T03:20:56.399Z,38.20
2023-01-20T03:23:26.417Z,30.77
2023-01-20T03:25:58.339Z,33.78
2023-01-20T03:28:28.375Z,39.05
2023-01-20T03:31:00.309Z,36.58
2023-01-20T03:33:30.276Z,34.58
2023-01-20T03:36:02.779Z,35.72
2023-01-20T03:38:32.691Z,32.13
2023-01-20T03:41:09.016Z,30.95
2023-01-20T03:43:47.523Z,31.38
2023-01-20T03:46:31.345Z,31.95
2023-01-20T03:49:09.910Z,36.33
2023-01-20T03:51:59.481Z,38.70
2023-01-20T03:54:37.306Z,31.83
2023-01-20T03:57:13.643Z,28.65
2023-01-20T03:59:46.097Z,30.63
2023-01-20T04:02:16.222Z,37.20
2023-01-20T04:04:49.492Z,35.20
2023-01-20T04:07:25.775Z,32.95
2023-01-20T04:10:01.632Z,31.65
2023-01-20T04:12:31.910Z,30.58
2023-01-20T04:15:03.433Z,38.97
2023-01-20T04:17:34.089Z,46.92
2023-01-20T04:20:10.432Z,37.85
2023-01-20T04:22:51.680Z,37.30
2023-01-20T04:25:28.021Z,36.85
2023-01-20T04:27:57.885Z,35.33
2023-01-20T04:30:27.843Z,41.30
2023-01-20T04:32:57.725Z,39.90
2023-01-20T04:35:27.880Z,34.75
2023-01-20T04:38:00.309Z,38.55
2023-01-20T04:40:30.492Z,39.75
2023-01-20T04:43:00.347Z,38.20
2023-01-20T04:45:30.235Z,36.50
2023-01-20T04:48:00.240Z,35.35
2023-01-20T04:50:30.147Z,38.33
2023-01-20T04:53:02.577Z,38.50
2023-01-20T04:55:32.736Z,35.58
2023-01-20T04:58:02.601Z,33.58
2023-01-20T05:00:32.655Z,38.58
2023-01-20T05:03:02.642Z,39.47
2023-01-20T05:05:32.624Z,39.67
2023-01-20T05:08:05.896Z,41.03
2023-01-20T05:10:36.485Z,39.65
2023-01-20T05:13:06.389Z,38.03
2023-01-20T05:15:36.297Z,41.25
2023-01-20T05:18:06.477Z,38.83
2023-01-20T05:20:36.456Z,35.40
2023-01-20T05:23:09.319Z,36.55
2023-01-20T05:25:39.175Z,37.15
2023-01-20T05:28:09.427Z,35.65
2023-01-20T05:30:39.339Z,38.38
2023-01-20T05:33:09.229Z,44.75
2023-01-20T05:35:41.330Z,43.22
2023-01-20T05:38:13.783Z,40.35
2023-01-20T05:40:43.676Z,40.00
2023-01-20T05:43:13.524Z,41.75
2023-01-20T05:45:43.731Z,44.45
2023-01-20T05:48:13.586Z,40.78
2023-01-20T05:50:43.426Z,43.90
2023-01-20T05:53:16.002Z,38.30
2023-01-20T05:55:46.253Z,47.55
2023-01-20T05:58:16.312Z,42.70
2023-01-20T06:00:46.134Z,48.38
2023-01-20T06:03:16.001Z,52.15
2023-01-20T06:05:45.867Z,41.15
2023-01-20T06:08:18.325Z,49.88
2023-01-20T06:10:50.444Z,43.17
2023-01-20T06:13:20.409Z,51.63
2023-01-20T06:15:55.050Z,44.67
2023-01-20T06:20:59.448Z,45.13
2023-01-20T06:23:32.571Z,45.40
2023-01-20T06:26:04.184Z,53.60
2023-01-20T06:28:35.040Z,43.05
2023-01-20T06:31:06.976Z,44.45
2023-01-20T06:33:37.876Z,43.25
2023-01-20T06:36:09.063Z,47.33
2023-01-20T06:38:41.635Z,45.97
2023-01-20T06:41:12.442Z,46.28
2023-01-20T06:43:42.683Z,40.58
2023-01-20T06:46:16.203Z,46.97
2023-01-20T06:48:47.259Z,46.72
2023-01-20T06:51:19.628Z,49.70
2023-01-20T06:53:52.229Z,46.80
2023-01-20T06:56:22.546Z,51.65
2023-01-20T06:58:52.883Z,50.25
2023-01-20T07:01:28.180Z,53.92
2023-01-20T07:03:58.355Z,42.88
2023-01-20T07:06:33.984Z,50.35
2023-01-20T07:09:08.122Z,48.03
2023-01-20T07:11:38.005Z,46.75
2023-01-20T07:14:10.098Z,45.63
2023-01-20T07:16:40.537Z,46.28
2023-01-20T07:19:10.435Z,45.67
2023-01-20T07:21:40.262Z,45.35
2023-01-20T07:24:13.070Z,50.97
2023-01-20T07:26:43.926Z,52.60
2023-01-20T07:29:14.512Z,47.05
2023-01-20T07:31:45.840Z,56.25
2023-01-20T07:34:15.721Z,52.20
2023-01-20T07:36:45.771Z,52.80
2023-01-20T07:39:20.291Z,55.97
2023-01-20T07:41:51.331Z,53.15
2023-01-20T07:44:21.321Z,49.80
2023-01-20T07:46:51.725Z,52.83
2023-01-20T07:49:21.749Z,51.72
2023-01-20T07:51:51.748Z,46.88
2023-01-20T07:54:24.515Z,51.00
2023-01-20T07:56:54.536Z,46.30
2023-01-20T07:59:24.551Z,48.72
2023-01-20T08:01:54.476Z,46.40
2023-01-20T08:04:24.560Z,50.88
2023-01-20T08:06:54.651Z,51.92
2023-01-20T08:09:27.166Z,51.47
2023-01-20T08:11:57.052Z,55.35
2023-01-20T08:14:27.442Z,59.17
2023-01-20T08:16:57.368Z,56.38
2023-01-20T08:19:27.688Z,52.95
2023-01-20T08:21:57.557Z,55.65
2023-01-20T08:24:30.058Z,56.22
2023-01-20T08:26:59.920Z,54.40
2023-01-20T08:29:31.307Z,49.72
2023-01-20T08:32:02.391Z,55.25
2023-01-20T08:34:32.405Z,50.45
2023-01-20T08:37:02.422Z,52.80
2023-01-20T08:39:35.047Z,57.97
2023-01-20T08:42:05.088Z,56.72
2023-01-20T08:44:35.198Z,54.92
2023-01-20T08:47:05.254Z,56.75
2023-01-20T08:49:35.295Z,63.95
2023-01-20T08:52:05.343Z,55.90
2023-01-20T08:54:38.015Z,58.63
2023-01-20T08:57:08.134Z,58.80
2023-01-20T08:59:38.143Z,63.83
2023-01-20T09:02:08.139Z,67.47
2023-01-20T09:04:39.796Z,66.53
2023-01-20T09:07:10.053Z,60.65
2023-01-20T09:09:42.706Z,68.93
2023-01-20T09:12:13.766Z,65.43
2023-01-20T09:14:43.869Z,58.65
2023-01-20T09:17:14.815Z,57.85
2023-01-20T09:19:44.840Z,58.17
2023-01-20T09:22:16.530Z,57.83
2023-01-20T09:24:49.278Z,63.55
2023-01-20T09:27:19.325Z,54.03
2023-01-20T09:29:49.981Z,61.13
2023-01-20T09:32:19.991Z,58.30
2023-01-20T09:34:50.031Z,59.80
2023-01-20T09:37:33.548Z,59.78
2023-01-20T09:40:18.868Z,52.35
2023-01-20T09:43:17.617Z,54.00
2023-01-20T09:45:57.745Z,57.08
2023-01-20T09:48:52.726Z,58.15
2023-01-20T09:51:43.517Z,57.58
2023-01-20T09:54:22.288Z,57.53
2023-01-20T09:56:57.871Z,60.00
2023-01-20T09:59:34.806Z,66.70
2023-01-20T10:02:10.267Z,58.05
2023-01-20T10:04:47.511Z,65.93
2023-01-20T10:07:24.860Z,64.35
2023-01-20T10:10:01.835Z,59.95
2023-01-20T10:12:37.940Z,66.47
2023-01-20T10:15:12.639Z,65.50
2023-01-20T10:20:23.233Z,64.03
2023-01-20T10:22:56.742Z,64.03
2023-01-20T10:25:31.324Z,61.97
2023-01-20T10:28:13.116Z,67.30
2023-01-20T10:30:46.993Z,69.78
2023-01-20T10:33:26.193Z,64.05
2023-01-20T10:35:59.985Z,63.40
2023-01-20T10:38:39.229Z,64.60
2023-01-20T10:41:20.515Z,63.65
2023-01-20T10:43:53.614Z,66.78
2023-01-20T10:46:43.337Z,65.70
2023-01-20T10:49:56.710Z,65.68
2023-01-20T10:52:44.761Z,65.45
2023-01-20T10:55:28.184Z,60.33
2023-01-20T10:58:03.477Z,64.75
2023-01-20T11:00:36.763Z,65.00
2023-01-20T11:03:11.181Z,64.60
2023-01-20T11:05:42.405Z,61.15
2023-01-20T11:08:19.925Z,64.47
2023-01-20T11:10:54.009Z,63.92
2023-01-20T11:13:24.193Z,81.55
2023-01-20T11:16:00.329Z,68.50
2023-01-20T11:18:33.621Z,56.97
2023-01-20T11:21:07.195Z,60.53
2023-01-20T11:23:42.155Z,56.13
2023-01-20T11:26:26.192Z,55.35
2023-01-20T11:29:00.470Z,55.63
2023-01-20T11:31:42.592Z,51.88
2023-01-20T11:34:25.936Z,55.15
2023-01-20T11:37:20.468Z,54.25
2023-01-20T11:40:03.351Z,52.17
2023-01-20T11:42:46.075Z,62.35
2023-01-20T11:45:40.207Z,53.75
2023-01-20T11:48:21.775Z,56.88
2023-01-20T11:50:57.607Z,53.35
2023-01-20T11:53:31.739Z,63.17
2023-01-20T11:56:05.188Z,64.22
2023-01-20T11:58:52.728Z,65.22
2023-01-20T12:01:27.895Z,67.60
2023-01-20T12:04:56.512Z,57.75
2023-01-20T12:07:31.657Z,64.68
2023-01-20T12:10:06.206Z,72.07
2023-01-20T12:12:43.155Z,62.25
2023-01-20T12:15:19.726Z,68.78
2023-01-20T12:17:57.965Z,69.90
2023-01-20T12:20:53.942Z,65.70
2023-01-20T12:23:46.042Z,61.75
2023-01-20T12:26:18.210Z,60.63
2023-01-20T12:28:56.734Z,61.65
2023-01-20T12:31:27.830Z,62.72
2023-01-20T12:34:03.853Z,61.38
2023-01-20T12:36:57.894Z,61.33
2023-01-20T12:39:42.469Z,62.55
2023-01-20T12:42:41.914Z,60.03
2023-01-20T12:45:24.376Z,66.97
2023-01-20T12:48:08.236Z,66.50
2023-01-20T12:50:58.112Z,62.25
2023-01-20T12:53:48.908Z,73.45
2023-01-20T12:56:32.814Z,71.05
2023-01-20T12:59:15.183Z,72.47
2023-01-20T13:02:03.499Z,68.20
2023-01-20T13:05:09.931Z,71.60
2023-01-20T13:08:05.682Z,75.97
2023-01-20T13:10:55.310Z,67.43
2023-01-20T13:13:56.517Z,67.90
2023-01-20T13:16:36.094Z,68.57
2023-01-20T13:19:15.448Z,68.18
2023-01-20T13:21:46.980Z,69.60
2023-01-20T13:24:29.258Z,60.88
2023-01-20T13:27:02.178Z,64.88
2023-01-20T13:29:56.819Z,64.65
2023-01-20T13:32:38.752Z,66.60
2023-01-20T13:35:50.320Z,66.50
2023-01-20T13:38:28.032Z,71.28
2023-01-20T13:41:03.268Z,70.25
2023-01-20T13:43:50.125Z,68.88
2023-01-20T13:46:49.118Z,66.28
2023-01-20T13:49:27.279Z,66.53
2023-01-20T13:51:57.455Z,67.07
2023-01-20T13:54:50.382Z,70.47
2023-01-20T13:57:40.134Z,65.32
2023-01-20T14:00:21.806Z,67.07
2023-01-20T14:02:53.240Z,63.88
2023-01-20T14:05:35.418Z,69.90
2023-01-20T14:08:05.531Z,68.90
2023-01-20T14:10:35.574Z,62.13
2023-01-20T14:13:13.071Z,63.45
2023-01-20T14:15:45.804Z,66.75
2023-01-20T14:18:19.247Z,70.75
2023-01-20T14:21:05.665Z,78.47
2023-01-20T14:23:40.823Z,67.25
2023-01-20T14:26:14.221Z,70.90
2023-01-20T14:28:48.760Z,63.95
2023-01-20T14:31:36.750Z,61.90
2023-01-20T14:34:30.525Z,68.55
2023-01-20T14:37:18.455Z,64.38
2023-01-20T14:42:24.173Z,66.50
2023-01-20T14:44:56.786Z,66.97
2023-01-20T14:47:30.362Z,67.28
2023-01-20T14:50:00.454Z,70.07
2023-01-20T14:52:33.123Z,69.65
2023-01-20T14:55:03.162Z,57.95
2023-01-20T14:57:35.071Z,67.15
2023-01-20T15:00:23.982Z,62.80
2023-01-20T15:03:10.661Z,60.35
2023-01-20T15:05:45.206Z,52.50
2023-01-20T15:08:29.714Z,62.10
2023-01-20T15:11:22.651Z,63.50
2023-01-20T15:14:12.344Z,63.20
2023-01-20T15:16:50.532Z,59.13
2023-01-20T15:19:38.587Z,60.78
2023-01-20T15:22:25.593Z,60.80
2023-01-20T15:24:56.496Z,67.90
2023-01-20T15:27:31.578Z,65.75
2023-01-20T15:30:16.042Z,64.13
2023-01-20T15:32:46.305Z,54.22
2023-01-20T15:35:23.023Z,67.15
2023-01-20T15:37:53.390Z,60.30
2023-01-20T15:40:26.944Z,62.38
2023-01-20T15:42:57.585Z,58.53
2023-01-20T15:45:28.403Z,59.22
2023-01-20T15:47:58.489Z,59.60
2023-01-20T15:50:33.009Z,64.05
2023-01-20T15:53:03.536Z,58.78
2023-01-20T15:55:33.587Z,58.53
2023-01-20T15:58:03.599Z,60.60
2023-01-20T16:00:34.345Z,54.42
2023-01-20T16:03:04.573Z,60.50
2023-01-20T16:05:37.188Z,59.78
2023-01-20T16:08:16.194Z,61.28
2023-01-20T16:10:46.250Z,60.35
2023-01-20T16:13:16.983Z,59.33
2023-01-20T16:15:47.012Z,65.85
2023-01-20T16:18:21.012Z,61.50
2023-01-20T16:20:53.660Z,58.50
2023-01-20T16:23:23.478Z,65.30
2023-01-20T16:25:53.354Z,59.55
2023-01-20T16:28:24.735Z,59.75
2023-01-20T16:30:57.910Z,64.32
2023-01-20T16:33:29.989Z,58.42
2023-01-20T16:36:02.672Z,54.67
2023-01-20T16:38:32.777Z,56.78
2023-01-20T16:41:12.836Z,57.85
2023-01-20T16:43:43.733Z,64.43
2023-01-20T16:46:17.239Z,56.33
2023-01-20T16:48:47.616Z,58.15
2023-01-20T16:51:25.923Z,54.17
2023-01-20T16:53:56.451Z,58.83
2023-01-20T16:56:28.976Z,60.47
2023-01-20T16:59:01.606Z,62.75
2023-01-20T17:01:33.294Z,66.65
2023-01-20T17:04:05.779Z,59.70
2023-01-20T17:06:38.487Z,60.65
2023-01-20T17:09:08.636Z,61.78
2023-01-20T17:11:40.797Z,58.40
2023-01-20T17:14:13.413Z,55.33
2023-01-20T17:16:43.503Z,60.95
2023-01-20T17:19:14.778Z,60.63
2023-01-20T17:21:48.766Z,57.30
2023-01-20T17:24:19.423Z,60.22
2023-01-20T17:26:49.401Z,55.03
2023-01-20T17:29:21.935Z,55.42
2023-01-20T17:31:51.925Z,51.95
2023-01-20T17:34:21.892Z,54.42
2023-01-20T17:36:54.361Z,52.33
2023-01-20T17:39:24.280Z,54.50
2023-01-20T17:41:54.222Z,59.58
2023-01-20T17:44:24.137Z,52.75
2023-01-20T17:46:54.047Z,57.35
2023-01-20T17:49:23.996Z,58.47
2023-01-20T17:51:56.477Z,57.08
2023-01-20T17:54:26.418Z,59.60
2023-01-20T17:56:56.317Z,54.00
2023-01-20T17:59:26.323Z,55.63
2023-01-20T18:01:56.926Z,56.42
2023-01-20T18:04:26.956Z,51.63
2023-01-20T18:06:59.664Z,60.00
2023-01-20T18:09:29.661Z,55.03
2023-01-20T18:11:59.586Z,56.45
2023-01-20T18:14:29.517Z,51.53
2023-01-20T18:16:59.707Z,52.33
2023-01-20T18:19:29.880Z,48.10
2023-01-20T18:22:06.944Z,53.92
2023-01-20T18:24:37.069Z,56.05
2023-01-20T18:27:07.106Z,55.40
2023-01-20T18:29:37.684Z,47.45
2023-01-20T18:32:08.435Z,47.13
2023-01-20T18:34:38.661Z,50.45
2023-01-20T18:37:11.126Z,46.45
2023-01-20T18:39:40.981Z,54.28
2023-01-20T18:42:10.874Z,50.63
2023-01-20T18:44:40.728Z,35.75
2023-01-20T18:47:10.603Z,39.55
2023-01-20T18:49:40.435Z,39.35
2023-01-20T18:52:12.931Z,38.08
2023-01-20T18:54:42.785Z,36.58
2023-01-20T18:57:12.659Z,42.38
2023-01-20T18:59:42.525Z,48.00
2023-01-20T19:02:13.473Z,52.35
2023-01-20T19:04:43.497Z,48.33
2023-01-20T19:07:15.897Z,63.95
2023-01-20T19:09:47.556Z,49.60
2023-01-20T19:12:17.433Z,62.08
2023-01-20T19:14:47.277Z,42.92
2023-01-20T19:17:17.125Z,41.90
2023-01-20T19:19:49.712Z,47.70
2023-01-20T19:22:22.127Z,49.72
2023-01-20T19:24:52.030Z,39.60
2023-01-20T19:27:21.971Z,47.55
2023-01-20T19:29:51.860Z,50.15
2023-01-20T19:32:21.741Z,45.95
2023-01-20T19:34:51.623Z,40.58
2023-01-20T19:37:24.071Z,45.15
2023-01-20T19:39:53.961Z,40.78
2023-01-20T19:42:25.700Z,47.55
2023-01-20T19:44:55.749Z,42.70
2023-01-20T19:47:26.098Z,40.05
2023-01-20T19:49:56.027Z,40.35
2023-01-20T19:52:28.565Z,37.20
2023-01-20T19:54:58.441Z,43.17
2023-01-20T19:57:28.775Z,46.83
2023-01-20T19:59:58.716Z,49.67
2023-01-20T20:02:28.922Z,47.90
2023-01-20T20:04:58.763Z,46.20
2023-01-20T20:07:31.222Z,52.45
2023-01-20T20:10:01.063Z,50.55
2023-01-20T20:12:31.810Z,52.30
2023-01-20T20:15:02.061Z,47.97
2023-01-20T20:17:31.929Z,47.25
2023-01-20T20:20:01.852Z,46.10
2023-01-20T20:22:34.857Z,45.10
2023-01-20T20:25:05.751Z,40.85
2023-01-20T20:27:35.633Z,42.60
2023-01-20T20:30:06.942Z,53.08
2023-01-20T20:32:36.846Z,43.75
2023-01-20T20:35:07.922Z,46.60
2023-01-20T20:37:40.444Z,48.05
2023-01-20T20:40:13.328Z,46.15
2023-01-20T20:42:43.319Z,51.05
2023-01-20T20:45:14.533Z,42.63
2023-01-20T20:47:44.390Z,34.75
2023-01-20T20:50:16.439Z,33.90
2023-01-20T20:52:50.702Z,38.78
2023-01-20T20:55:20.741Z,40.85
2023-01-20T20:57:50.617Z,43.15
2023-01-20T21:00:23.634Z,38.25
2023-01-20T21:02:53.669Z,37.75
2023-01-20T21:05:23.862Z,44.00
2023-01-20T21:07:56.308Z,42.17
2023-01-20T21:10:26.167Z,33.22
2023-01-20T21:12:56.035Z,36.45
2023-01-20T21:15:25.900Z,40.83
2023-01-20T21:17:55.797Z,43.97
2023-01-20T21:20:25.697Z,48.97
2023-01-20T21:22:58.107Z,36.10
2023-01-20T21:25:28.121Z,39.13
2023-01-20T21:27:59.073Z,36.10
2023-01-20T21:30:28.972Z,41.65
2023-01-20T21:32:58.836Z,34.58
2023-01-20T21:35:28.715Z,36.88
2023-01-20T21:38:01.138Z,36.33
2023-01-20T21:40:32.801Z,32.45
2023-01-20T21:43:32.598Z,31.45
2023-01-20T21:45:59.888Z,34.47
2023-01-20T21:48:42.237Z,34.22
2023-01-20T21:51:27.242Z,31.95
2023-01-20T21:56:29.445Z,38.53
2023-01-20T21:58:59.292Z,26.92
2023-01-20T22:01:29.215Z,30.58
2023-01-20T22:03:59.085Z,29.30
2023-01-20T22:06:29.079Z,32.20
2023-01-20T22:09:01.774Z,32.20
2023-01-20T22:11:31.676Z,33.90
2023-01-20T22:14:01.742Z,25.98
2023-01-20T22:16:32.196Z,31.10
2023-01-20T22:19:02.136Z,30.65
2023-01-20T22:21:31.996Z,31.63
2023-01-20T22:24:05.353Z,33.70
2023-01-20T22:26:35.234Z,33.17
2023-01-20T22:29:05.166Z,31.80
2023-01-20T22:31:35.461Z,37.78
2023-01-20T22:34:06.455Z,32.67
2023-01-20T22:36:37.145Z,34.03
2023-01-20T22:39:10.177Z,31.75
2023-01-20T22:41:40.040Z,38.60
2023-01-20T22:44:10.217Z,33.83
2023-01-20T22:46:40.103Z,33.65
2023-01-20T22:49:09.970Z,36.63
2023-01-20T22:51:40.072Z,39.38
2023-01-20T22:54:13.467Z,38.30
2023-01-20T22:56:43.340Z,37.67
2023-01-20T22:59:15.355Z,36.55
2023-01-20T23:01:45.227Z,35.63
2023-01-20T23:04:15.606Z,35.97
2023-01-20T23:06:45.480Z,38.38
2023-01-20T23:09:17.916Z,34.58
2023-01-20T23:11:48.452Z,39.25
2023-01-20T23:14:38.348Z,35.35
2023-01-20T23:17:08.204Z,34.72
2023-01-20T23:19:38.069Z,38.67
2023-01-20T23:22:07.945Z,36.50
2023-01-20T23:24:40.369Z,31.05
2023-01-20T23:27:10.250Z,33.08
2023-01-20T23:29:40.130Z,30.73
2023-01-20T23:32:10.730Z,32.47
2023-01-20T23:34:40.566Z,32.90
2023-01-20T23:37:10.463Z,38.67
2023-01-20T23:39:42.917Z,32.38
2023-01-20T23:42:12.771Z,28.30
2023-01-20T23:44:42.637Z,30.92
2023-01-20T23:47:12.915Z,34.70
2023-01-20T23:49:43.630Z,29.95
2023-01-20T23:52:13.627Z,33.25
2023-01-20T23:54:46.128Z,34.60
2023-01-20T23:57:16.022Z,29.65
2023-01-20T23:59:45.902Z,37.47
